TAF

Looking Back 6 Hours

Worst Weather Category
LocationTimeVisiblityCeilingWeatherWind SpeedWind Gust
KPBF121730Z6NONENONE WNW 12NA NA

  • TAFPBF TAF KPBF 121730Z 1218/1318 30012KT P6SM SKC
          FM130000 VRB03KT P6SM SKC
          FM131600 22009KT P6SM FEW250 =